createdAt,value
2022-10-14T00:00:41.498Z,22.63
2022-10-14T00:03:08.434Z,23.88
2022-10-14T00:05:35.103Z,22.58
2022-10-14T00:08:01.532Z,22.58
2022-10-14T00:10:28.265Z,23.17
2022-10-14T00:12:54.691Z,23.35
2022-10-14T00:15:21.136Z,22.85
2022-10-14T00:17:47.635Z,23.63
2022-10-14T00:20:13.986Z,24.17
2022-10-14T00:22:40.420Z,25.15
2022-10-14T00:25:07.074Z,28.50
2022-10-14T00:27:33.435Z,27.33
2022-10-14T00:29:59.804Z,29.85
2022-10-14T00:32:26.188Z,28.45
2022-10-14T00:34:52.572Z,27.90
2022-10-14T00:37:19.409Z,30.85
2022-10-14T00:39:45.946Z,30.92
2022-10-14T00:42:15.705Z,30.02
2022-10-14T00:44:50.735Z,29.38
2022-10-14T00:47:17.083Z,30.13
2022-10-14T00:49:44.243Z,32.35
2022-10-14T00:52:17.944Z,30.48
2022-10-14T00:54:48.063Z,31.35
2022-10-14T00:57:14.672Z,32.38
2022-10-14T00:59:41.412Z,30.48
2022-10-14T01:02:08.005Z,30.63
2022-10-14T01:04:35.809Z,30.08
2022-10-14T01:07:11.566Z,28.70
2022-10-14T01:10:05.556Z,29.67
2022-10-14T01:12:50.498Z,27.55
2022-10-14T01:15:32.876Z,25.77
2022-10-14T01:18:20.232Z,25.48
2022-10-14T01:21:12.805Z,26.95
2022-10-14T01:24:05.421Z,25.63
2022-10-14T01:26:59.818Z,24.70
2022-10-14T01:30:00.972Z,24.65
2022-10-14T01:32:30.637Z,23.75
2022-10-14T01:35:09.798Z,23.50
2022-10-14T01:37:38.335Z,21.83
2022-10-14T01:40:11.875Z,21.27
2022-10-14T01:42:40.220Z,22.20
2022-10-14T01:45:14.514Z,21.15
2022-10-14T01:50:11.784Z,20.00
2022-10-14T01:52:45.215Z,22.17
2022-10-14T01:55:15.659Z,20.13
2022-10-14T01:57:43.330Z,20.15
2022-10-14T02:00:11.267Z,22.60
2022-10-14T02:02:39.093Z,21.65
2022-10-14T02:05:13.752Z,22.13
2022-10-14T02:07:45.877Z,21.15
2022-10-14T02:10:18.262Z,21.15
2022-10-14T02:12:54.691Z,21.23
2022-10-14T02:15:50.323Z,21.00
2022-10-14T02:18:27.360Z,20.23
2022-10-14T02:21:07.815Z,21.73
2022-10-14T02:23:39.614Z,21.60
2022-10-14T02:26:06.303Z,21.02
2022-10-14T02:28:33.452Z,22.73
2022-10-14T02:31:08.806Z,21.85
2022-10-14T02:33:39.280Z,21.50
2022-10-14T02:36:07.647Z,21.42
2022-10-14T02:38:34.155Z,20.55
2022-10-14T02:41:03.507Z,22.58
2022-10-14T02:43:30.114Z,21.17
2022-10-14T02:45:59.085Z,21.88
2022-10-14T02:48:25.503Z,21.30
2022-10-14T02:50:51.837Z,21.50
2022-10-14T02:53:18.141Z,19.95
2022-10-14T02:55:44.597Z,20.80
2022-10-14T02:58:10.912Z,21.05
2022-10-14T03:00:37.438Z,20.38
2022-10-14T03:03:03.957Z,20.90
2022-10-14T03:05:30.297Z,21.67
2022-10-14T03:07:56.616Z,21.23
2022-10-14T03:10:22.944Z,21.38
2022-10-14T03:12:49.263Z,20.30
2022-10-14T03:15:16.171Z,21.70
2022-10-14T03:17:42.507Z,19.52
2022-10-14T03:20:09.254Z,21.42
2022-10-14T03:22:35.666Z,22.92
2022-10-14T03:25:02.348Z,21.83
2022-10-14T03:27:28.886Z,19.63
2022-10-14T03:29:55.226Z,20.27
2022-10-14T03:32:21.970Z,21.10
2022-10-14T03:34:48.715Z,19.65
2022-10-14T03:37:15.101Z,20.58
2022-10-14T03:39:41.508Z,20.60
2022-10-14T03:42:07.899Z,19.38
2022-10-14T03:44:34.271Z,20.45
2022-10-14T03:47:00.612Z,20.25
2022-10-14T03:49:27.076Z,19.73
2022-10-14T03:51:53.408Z,20.17
2022-10-14T03:54:19.705Z,19.70
2022-10-14T03:56:46.043Z,18.23
2022-10-14T03:59:12.517Z,19.35
2022-10-14T04:01:38.952Z,19.33
2022-10-14T04:04:05.462Z,19.63
2022-10-14T04:06:31.775Z,17.52
2022-10-14T04:08:58.106Z,16.77
2022-10-14T04:11:24.459Z,16.65
2022-10-14T04:13:50.792Z,17.48
2022-10-14T04:16:17.120Z,17.13
2022-10-14T04:18:43.489Z,20.20
2022-10-14T04:21:12.177Z,18.10
2022-10-14T04:23:38.774Z,16.65
2022-10-14T04:26:06.576Z,15.85
2022-10-14T04:28:33.832Z,18.50
2022-10-14T04:31:00.464Z,18.15
2022-10-14T04:33:27.086Z,19.77
2022-10-14T04:36:00.905Z,19.60
2022-10-14T04:38:27.659Z,18.92
2022-10-14T04:40:54.171Z,19.70
2022-10-14T04:43:20.801Z,19.00
2022-10-14T04:45:47.447Z,20.05
2022-10-14T04:48:14.240Z,20.85
2022-10-14T04:50:40.579Z,21.17
2022-10-14T04:53:11.934Z,17.42
2022-10-14T04:55:39.740Z,17.52
2022-10-14T04:58:06.103Z,20.90
2022-10-14T05:00:32.538Z,18.63
2022-10-14T05:02:59.055Z,20.00
2022-10-14T05:05:25.391Z,21.27
2022-10-14T05:07:51.912Z,18.30
2022-10-14T05:10:18.312Z,19.98
2022-10-14T05:12:44.706Z,21.13
2022-10-14T05:15:11.680Z,20.45
2022-10-14T05:17:39.193Z,19.05
2022-10-14T05:20:06.694Z,20.75
2022-10-14T05:22:34.097Z,20.65
2022-10-14T05:25:00.418Z,22.55
2022-10-14T05:27:26.792Z,21.13
2022-10-14T05:29:53.115Z,22.85
2022-10-14T05:32:19.742Z,20.98
2022-10-14T05:34:46.397Z,21.33
2022-10-14T05:37:12.743Z,20.65
2022-10-14T05:39:39.078Z,21.55
2022-10-14T05:42:05.560Z,22.50
2022-10-14T05:44:31.904Z,20.85
2022-10-14T05:46:58.231Z,21.23
2022-10-14T05:49:24.611Z,22.85
2022-10-14T05:51:50.992Z,22.33
2022-10-14T05:54:17.303Z,22.45
2022-10-14T05:56:47.000Z,22.38
2022-10-14T05:59:13.416Z,21.35
2022-10-14T06:01:40.043Z,20.00
2022-10-14T06:04:06.447Z,23.17
2022-10-14T06:06:32.820Z,21.05
2022-10-14T06:08:59.197Z,18.98
2022-10-14T06:11:25.523Z,20.85
2022-10-14T06:13:52.467Z,18.23
2022-10-14T06:16:18.874Z,20.35
2022-10-14T06:18:45.188Z,18.70
2022-10-14T06:21:12.443Z,19.08
2022-10-14T06:23:38.771Z,19.15
2022-10-14T06:26:06.375Z,18.73
2022-10-14T06:28:32.990Z,20.00
2022-10-14T06:30:59.543Z,20.25
2022-10-14T06:33:28.399Z,20.55
2022-10-14T06:35:54.739Z,21.88
2022-10-14T06:38:21.066Z,21.90
2022-10-14T06:40:53.123Z,21.98
2022-10-14T06:43:20.467Z,21.63
2022-10-14T06:45:47.561Z,22.10
2022-10-14T06:48:13.934Z,21.70
2022-10-14T06:50:40.679Z,21.60
2022-10-14T06:53:07.281Z,22.35
2022-10-14T06:55:33.652Z,19.38
2022-10-14T06:58:00.009Z,21.13
2022-10-14T07:00:26.511Z,22.08
2022-10-14T07:02:52.834Z,21.30
2022-10-14T07:05:19.157Z,22.00
2022-10-14T07:07:45.490Z,22.13
2022-10-14T07:10:12.017Z,22.98
2022-10-14T07:12:38.330Z,23.60
2022-10-14T07:15:05.139Z,24.85
2022-10-14T07:17:31.632Z,22.13
2022-10-14T07:19:58.011Z,22.90
2022-10-14T07:22:24.868Z,22.70
2022-10-14T07:24:51.343Z,21.05
2022-10-14T07:27:18.228Z,23.13
2022-10-14T07:29:44.718Z,22.13
2022-10-14T07:32:11.042Z,21.50
2022-10-14T07:34:37.441Z,22.40
2022-10-14T07:37:04.113Z,22.25
2022-10-14T07:39:30.634Z,23.35
2022-10-14T07:41:56.969Z,20.58
2022-10-14T07:44:26.530Z,20.25
2022-10-14T07:46:53.855Z,21.45
2022-10-14T07:49:21.480Z,21.15
2022-10-14T07:51:48.499Z,22.45
2022-10-14T07:54:17.505Z,22.10
2022-10-14T07:56:44.643Z,20.75
2022-10-14T07:59:11.385Z,19.40
2022-10-14T08:01:37.862Z,21.50
2022-10-14T08:04:04.630Z,22.05
2022-10-14T08:06:31.098Z,23.02
2022-10-14T08:08:57.431Z,22.25
2022-10-14T08:11:26.170Z,23.20
2022-10-14T08:13:53.399Z,22.73
2022-10-14T08:16:33.642Z,23.90
2022-10-14T08:19:03.184Z,20.58
2022-10-14T08:21:29.551Z,24.95
2022-10-14T08:23:56.102Z,23.02
2022-10-14T08:26:28.004Z,21.75
2022-10-14T08:28:54.634Z,23.45
2022-10-14T08:31:21.548Z,24.00
2022-10-14T08:33:48.104Z,25.00
2022-10-14T08:36:15.411Z,26.20
2022-10-14T08:38:41.833Z,25.33
2022-10-14T08:41:25.880Z,26.48
2022-10-14T08:44:08.791Z,24.63
2022-10-14T08:46:45.764Z,27.25
2022-10-14T08:49:27.483Z,25.52
2022-10-14T08:51:59.264Z,24.95
2022-10-14T08:54:36.302Z,25.35
2022-10-14T08:57:04.347Z,25.38
2022-10-14T08:59:33.565Z,25.80
2022-10-14T09:02:14.717Z,26.20
2022-10-14T09:04:41.039Z,25.58
2022-10-14T09:07:12.203Z,24.85
2022-10-14T09:09:44.071Z,25.02
2022-10-14T09:12:17.633Z,24.83
2022-10-14T09:14:54.559Z,25.80
2022-10-14T09:17:27.656Z,25.13
2022-10-14T09:20:00.762Z,26.02
2022-10-14T09:22:27.246Z,24.58
2022-10-14T09:24:53.595Z,24.05
2022-10-14T09:27:22.097Z,22.58
2022-10-14T09:29:50.282Z,23.95
2022-10-14T09:32:21.206Z,22.63
2022-10-14T09:34:49.598Z,21.15
2022-10-14T09:37:33.424Z,21.55
2022-10-14T09:40:12.904Z,22.23
2022-10-14T09:42:53.091Z,20.77
2022-10-14T09:45:24.488Z,20.15
2022-10-14T09:47:57.026Z,19.88
2022-10-14T09:50:36.685Z,19.67
2022-10-14T09:53:17.862Z,19.13
2022-10-14T09:55:48.796Z,19.58
2022-10-14T09:58:18.053Z,17.67
2022-10-14T10:00:45.793Z,19.90
2022-10-14T10:03:29.466Z,19.55
2022-10-14T10:06:00.892Z,19.23
2022-10-14T10:08:27.686Z,18.35
2022-10-14T10:11:13.582Z,18.15
2022-10-14T10:13:45.314Z,19.58
2022-10-14T10:16:31.206Z,20.30
2022-10-14T10:19:00.304Z,18.58
2022-10-14T10:21:30.330Z,18.42
2022-10-14T10:23:59.433Z,18.27
2022-10-14T10:26:32.864Z,18.25
2022-10-14T10:29:04.835Z,17.03
2022-10-14T10:31:37.859Z,17.67
2022-10-14T10:34:41.228Z,16.85
2022-10-14T10:37:23.371Z,17.42
2022-10-14T10:40:21.190Z,15.73
2022-10-14T10:42:57.269Z,16.55
2022-10-14T10:45:42.590Z,16.75
2022-10-14T10:48:14.573Z,16.88
2022-10-14T10:50:43.529Z,17.73
2022-10-14T10:53:20.174Z,16.15
2022-10-14T10:55:56.202Z,13.88
2022-10-14T10:58:34.294Z,13.80
2022-10-14T11:01:31.514Z,14.40
2022-10-14T11:04:16.574Z,14.32
2022-10-14T11:07:33.087Z,14.52
2022-10-14T11:10:22.296Z,12.30
2022-10-14T11:12:56.981Z,14.40
2022-10-14T11:15:31.087Z,14.73
2022-10-14T11:18:03.960Z,14.25
2022-10-14T11:20:41.950Z,15.15
2022-10-14T11:23:20.201Z,13.02
2022-10-14T11:26:03.985Z,13.27
2022-10-14T11:28:53.711Z,11.93
2022-10-14T11:31:59.706Z,13.18
2022-10-14T11:34:43.775Z,11.80
2022-10-14T11:37:25.218Z,12.10
2022-10-14T11:39:58.513Z,12.18
2022-10-14T11:42:38.571Z,13.05
2022-10-14T11:45:07.939Z,11.55
2022-10-14T11:47:35.947Z,11.93
2022-10-14T11:50:10.789Z,12.88
2022-10-14T11:52:44.605Z,11.68
2022-10-14T11:55:16.405Z,12.60
2022-10-14T11:57:47.313Z,13.20
2022-10-14T12:01:09.561Z,11.48
2022-10-14T12:03:58.441Z,11.35
2022-10-14T12:06:44.069Z,11.70
2022-10-14T12:09:22.712Z,12.52
2022-10-14T12:11:52.638Z,12.63
2022-10-14T12:14:43.581Z,10.57
2022-10-14T12:17:30.358Z,10.15
2022-10-14T12:19:57.337Z,10.05
2022-10-14T12:22:27.422Z,9.82
2022-10-14T12:24:55.758Z,11.20
2022-10-14T12:27:25.726Z,10.80
2022-10-14T12:29:52.950Z,10.90
2022-10-14T12:32:28.257Z,11.50
2022-10-14T12:35:01.302Z,11.38
2022-10-14T12:37:37.862Z,10.27
2022-10-14T12:40:07.177Z,10.10
2022-10-14T12:42:42.492Z,10.65
2022-10-14T12:45:21.432Z,10.38
2022-10-14T12:47:48.059Z,8.85
2022-10-14T12:50:14.271Z,8.88
2022-10-14T12:52:41.697Z,9.23
2022-10-14T12:55:22.530Z,8.93
2022-10-14T12:57:57.096Z,9.68
2022-10-14T13:00:23.321Z,9.43
2022-10-14T13:02:51.802Z,9.23
2022-10-14T13:05:40.298Z,9.23
2022-10-14T13:08:12.402Z,9.00
2022-10-14T13:10:44.924Z,10.23
2022-10-14T13:13:40.270Z,9.07
2022-10-14T13:16:10.843Z,9.63
2022-10-14T13:18:42.843Z,9.43
2022-10-14T13:21:10.995Z,8.90
2022-10-14T13:23:41.278Z,9.65
2022-10-14T13:26:10.193Z,9.77
2022-10-14T13:28:49.955Z,10.35
2022-10-14T13:31:36.347Z,10.82
2022-10-14T13:34:12.670Z,10.07
2022-10-14T13:37:16.803Z,10.55
2022-10-14T13:39:45.686Z,10.23
2022-10-14T13:42:29.298Z,11.55
2022-10-14T13:45:03.930Z,10.80
2022-10-14T13:47:30.519Z,11.48
2022-10-14T13:49:56.962Z,11.13
2022-10-14T13:52:25.877Z,11.57
2022-10-14T13:55:13.355Z,10.98
2022-10-14T13:58:07.328Z,10.43
2022-10-14T14:00:40.615Z,10.63
2022-10-14T14:03:28.661Z,10.05
2022-10-14T14:05:55.533Z,10.45
2022-10-14T14:08:42.669Z,11.82
2022-10-14T14:11:35.509Z,12.23
2022-10-14T14:14:16.774Z,11.30
2022-10-14T14:17:04.247Z,10.88
2022-10-14T14:19:36.785Z,10.35
2022-10-14T14:22:24.410Z,10.57
2022-10-14T14:24:51.647Z,11.13
2022-10-14T14:27:23.740Z,11.60
2022-10-14T14:29:51.938Z,11.00
2022-10-14T14:32:23.307Z,10.65
2022-10-14T14:34:50.976Z,10.63
2022-10-14T14:40:32.216Z,9.98
2022-10-14T14:43:00.707Z,10.15
2022-10-14T14:45:41.278Z,10.00
2022-10-14T14:48:07.753Z,10.23
2022-10-14T14:50:40.029Z,9.35
2022-10-14T14:53:17.698Z,9.40
2022-10-14T14:56:00.246Z,10.00
2022-10-14T14:58:36.699Z,9.75
2022-10-14T15:01:03.633Z,9.98
2022-10-14T15:03:33.759Z,9.73
2022-10-14T15:06:04.939Z,9.65
2022-10-14T15:08:34.782Z,9.45
2022-10-14T15:11:01.663Z,9.20
2022-10-14T15:13:43.160Z,9.88
2022-10-14T15:16:09.939Z,9.82
2022-10-14T15:18:37.671Z,10.43
2022-10-14T15:21:05.747Z,10.13
2022-10-14T15:23:48.619Z,10.18
2022-10-14T15:26:22.864Z,9.27
2022-10-14T15:31:35.861Z,9.82
2022-10-14T15:34:02.708Z,12.00
2022-10-14T15:36:31.306Z,11.75
2022-10-14T15:38:58.979Z,10.88
2022-10-14T15:41:25.411Z,11.32
2022-10-14T15:43:51.844Z,12.82
2022-10-14T15:46:37.065Z,11.82
2022-10-14T15:49:05.524Z,13.13
2022-10-14T15:51:31.867Z,12.50
2022-10-14T15:53:58.209Z,12.25
2022-10-14T15:56:24.567Z,11.90
2022-10-14T15:58:50.923Z,12.02
2022-10-14T16:01:20.263Z,12.07
2022-10-14T16:03:49.966Z,12.63
2022-10-14T16:06:16.929Z,12.77
2022-10-14T16:08:43.314Z,12.32
2022-10-14T16:11:30.056Z,12.90
2022-10-14T16:13:56.703Z,12.52
2022-10-14T16:16:47.109Z,12.63
2022-10-14T16:19:13.532Z,12.27
2022-10-14T16:21:40.255Z,13.98
2022-10-14T16:24:07.737Z,14.15
2022-10-14T16:26:34.338Z,13.57
2022-10-14T16:29:03.046Z,12.52
2022-10-14T16:31:29.418Z,12.82
2022-10-14T16:33:55.782Z,13.63
2022-10-14T16:36:23.178Z,12.45
2022-10-14T16:38:49.876Z,12.45
2022-10-14T16:41:16.201Z,11.68
2022-10-14T16:43:42.546Z,11.57
2022-10-14T16:46:11.691Z,11.18
2022-10-14T16:48:41.071Z,11.38
2022-10-14T16:51:07.539Z,11.60
2022-10-14T16:53:48.762Z,11.15
2022-10-14T16:56:35.713Z,10.70
2022-10-14T16:59:02.316Z,11.38
2022-10-14T17:01:29.454Z,11.27
2022-10-14T17:03:56.747Z,10.60
2022-10-14T17:06:24.423Z,10.88
2022-10-14T17:08:51.129Z,10.82
2022-10-14T17:11:17.657Z,10.32
2022-10-14T17:13:44.122Z,9.73
2022-10-14T17:16:10.516Z,9.10
2022-10-14T17:18:37.060Z,10.50
2022-10-14T17:21:06.978Z,9.98
2022-10-14T17:23:34.767Z,9.52
2022-10-14T17:26:02.354Z,10.48
2022-10-14T17:28:30.160Z,10.15
2022-10-14T17:30:57.678Z,10.57
2022-10-14T17:33:26.073Z,9.63
2022-10-14T17:35:59.274Z,9.95
2022-10-14T17:38:26.653Z,10.90
2022-10-14T17:40:53.032Z,10.63
2022-10-14T17:43:20.411Z,9.77
2022-10-14T17:45:46.739Z,10.52
2022-10-14T17:48:13.072Z,9.68
2022-10-14T17:50:39.406Z,11.43
2022-10-14T17:53:05.857Z,11.32
2022-10-14T17:55:35.154Z,10.73
2022-10-14T17:58:01.465Z,10.20
2022-10-14T18:00:28.255Z,11.80
2022-10-14T18:02:54.586Z,11.52
2022-10-14T18:05:20.914Z,11.50
2022-10-14T18:07:47.265Z,11.80
2022-10-14T18:10:14.272Z,13.48
2022-10-14T18:12:41.570Z,12.63
2022-10-14T18:15:08.226Z,12.88
2022-10-14T18:17:36.322Z,14.77
2022-10-14T18:20:05.256Z,12.30
2022-10-14T18:22:32.584Z,14.05
2022-10-14T18:24:59.231Z,12.60
2022-10-14T18:27:26.088Z,12.88
2022-10-14T18:29:52.486Z,12.80
2022-10-14T18:32:18.884Z,12.98
2022-10-14T18:34:45.512Z,12.70
2022-10-14T18:37:11.967Z,12.75
2022-10-14T18:39:38.295Z,13.85
2022-10-14T18:42:04.606Z,14.55
2022-10-14T18:44:30.934Z,13.50
2022-10-14T18:46:57.293Z,12.90
2022-10-14T18:49:23.622Z,13.57
2022-10-14T18:51:50.454Z,13.55
2022-10-14T18:54:19.487Z,14.65
2022-10-14T18:56:46.697Z,14.02
2022-10-14T18:59:16.131Z,13.70
2022-10-14T19:01:42.621Z,14.07
2022-10-14T19:04:12.336Z,14.35
2022-10-14T19:06:38.777Z,13.07
2022-10-14T19:09:05.713Z,14.35
2022-10-14T19:11:33.563Z,14.27
2022-10-14T19:14:03.145Z,12.27
2022-10-14T19:16:31.494Z,11.90
2022-10-14T19:18:59.867Z,11.35
2022-10-14T19:21:29.587Z,12.10
2022-10-14T19:24:00.030Z,12.30
2022-10-14T19:26:30.915Z,11.70
2022-10-14T19:28:58.306Z,12.43
2022-10-14T19:31:26.521Z,12.77
2022-10-14T19:33:53.762Z,11.32
2022-10-14T19:36:21.766Z,12.43
2022-10-14T19:38:52.022Z,12.95
2022-10-14T19:41:18.916Z,11.98
2022-10-14T19:43:45.229Z,11.50
2022-10-14T19:46:13.569Z,10.73
2022-10-14T19:48:40.027Z,11.23
2022-10-14T19:51:10.517Z,10.93
2022-10-14T19:53:38.002Z,10.57
2022-10-14T19:56:09.793Z,9.45
2022-10-14T19:58:39.647Z,9.30
2022-10-14T20:01:09.536Z,9.30
2022-10-14T20:03:36.386Z,9.88
2022-10-14T20:06:03.779Z,7.72
2022-10-14T20:08:30.185Z,7.88
2022-10-14T20:10:56.748Z,8.30
2022-10-14T20:13:23.088Z,8.30
2022-10-14T20:15:54.173Z,8.07
2022-10-14T20:18:20.634Z,8.75
2022-10-14T20:20:46.982Z,8.80
2022-10-14T20:23:13.295Z,8.88
2022-10-14T20:25:41.515Z,8.63
2022-10-14T20:28:08.420Z,8.88
2022-10-14T20:30:34.881Z,9.23
2022-10-14T20:33:01.203Z,9.05
2022-10-14T20:37:58.826Z,7.90
2022-10-14T20:40:25.241Z,7.50
2022-10-14T20:42:52.124Z,7.53
2022-10-14T20:45:18.693Z,7.85
2022-10-14T20:47:52.623Z,7.57
2022-10-14T20:50:20.323Z,7.53
2022-10-14T20:52:46.678Z,7.25
2022-10-14T20:55:13.046Z,7.25
2022-10-14T20:57:39.390Z,7.68
2022-10-14T21:00:07.486Z,7.70
2022-10-14T21:02:34.261Z,7.07
2022-10-14T21:05:00.655Z,7.07
2022-10-14T21:07:26.987Z,5.75
2022-10-14T21:09:53.362Z,5.35
2022-10-14T21:12:19.922Z,4.72
2022-10-14T21:14:46.403Z,4.93
2022-10-14T21:17:12.738Z,4.70
2022-10-14T21:19:39.048Z,4.78
2022-10-14T21:22:05.372Z,4.30
2022-10-14T21:24:31.763Z,3.50
2022-10-14T21:26:58.566Z,4.00
2022-10-14T21:29:26.848Z,4.35
2022-10-14T21:31:53.388Z,4.22
2022-10-14T21:34:19.769Z,3.85
2022-10-14T21:36:46.105Z,4.82
2022-10-14T21:39:16.918Z,4.00
2022-10-14T21:41:43.796Z,4.10
2022-10-14T21:44:14.011Z,3.78
2022-10-14T21:46:40.467Z,3.97
2022-10-14T21:49:08.874Z,3.78
2022-10-14T21:51:35.227Z,3.92
2022-10-14T21:54:01.615Z,3.85
2022-10-14T21:56:28.367Z,3.42
2022-10-14T21:58:55.600Z,3.50
2022-10-14T22:01:26.012Z,4.22
2022-10-14T22:04:00.671Z,4.13
2022-10-14T22:06:27.739Z,3.58
2022-10-14T22:08:56.275Z,4.25
2022-10-14T22:11:28.570Z,4.10
2022-10-14T22:13:56.114Z,4.90
2022-10-14T22:16:23.109Z,5.22
2022-10-14T22:18:50.811Z,5.30
2022-10-14T22:21:20.476Z,5.47
2022-10-14T22:23:47.604Z,6.00
2022-10-14T22:26:16.087Z,6.18
2022-10-14T22:28:42.493Z,6.93
2022-10-14T22:31:14.557Z,6.55
2022-10-14T22:33:41.422Z,6.90
2022-10-14T22:36:13.555Z,6.80
2022-10-14T22:38:41.674Z,7.43
2022-10-14T22:41:08.752Z,6.93
2022-10-14T22:43:35.730Z,6.82
2022-10-14T22:46:03.303Z,6.47
2022-10-14T22:48:30.606Z,7.47
2022-10-14T22:51:01.683Z,6.85
2022-10-14T22:53:28.550Z,6.85
2022-10-14T22:55:55.248Z,7.00
2022-10-14T22:58:21.591Z,8.15
2022-10-14T23:00:47.998Z,7.82
2022-10-14T23:03:14.349Z,8.65
2022-10-14T23:05:40.832Z,8.73
2022-10-14T23:08:11.670Z,9.02
2022-10-14T23:10:38.888Z,8.68
2022-10-14T23:13:05.922Z,8.07
2022-10-14T23:15:32.793Z,7.72
2022-10-14T23:17:59.129Z,8.57
2022-10-14T23:20:25.744Z,8.63
2022-10-14T23:22:52.108Z,7.47
2022-10-14T23:25:18.620Z,6.85
2022-10-14T23:27:44.996Z,7.68
2022-10-14T23:30:11.653Z,8.25
2022-10-14T23:32:38.235Z,8.27
2022-10-14T23:35:04.861Z,6.97
2022-10-14T23:37:31.166Z,6.55
2022-10-14T23:39:57.615Z,6.22
2022-10-14T23:42:23.992Z,7.35
2022-10-14T23:44:50.344Z,7.32
2022-10-14T23:47:16.668Z,7.07
2022-10-14T23:49:43.002Z,7.28
2022-10-14T23:52:09.498Z,6.40
2022-10-14T23:54:36.021Z,7.05
2022-10-14T23:57:02.342Z,6.43
2022-10-14T23:59:28.671Z,7.10
